createdAt,value
2022-11-20T00:01:17.934Z,69.16
2022-11-20T00:03:45.197Z,69.32
2022-11-20T00:06:14.725Z,69.50
2022-11-20T00:08:41.658Z,69.73
2022-11-20T00:11:16.008Z,69.39
2022-11-20T00:13:44.309Z,69.33
2022-11-20T00:16:12.161Z,69.43
2022-11-20T00:18:38.817Z,69.39
2022-11-20T00:21:11.928Z,69.36
2022-11-20T00:23:38.577Z,69.21
2022-11-20T00:26:06.841Z,69.21
2022-11-20T00:28:33.678Z,69.43
2022-11-20T00:31:11.599Z,69.83
2022-11-20T00:33:38.288Z,69.91
2022-11-20T00:36:07.649Z,69.82
2022-11-20T00:38:35.263Z,69.85
2022-11-20T00:41:03.997Z,69.83
2022-11-20T00:43:31.015Z,69.38
2022-11-20T00:46:02.660Z,69.94
2022-11-20T00:48:29.488Z,69.75
2022-11-20T00:50:56.427Z,69.52
2022-11-20T00:53:23.315Z,69.57
2022-11-20T00:55:57.556Z,70.11
2022-11-20T00:58:25.346Z,69.55
2022-11-20T01:00:52.181Z,69.61
2022-11-20T01:03:22.843Z,69.87
2022-11-20T01:05:53.321Z,69.77
2022-11-20T01:08:19.882Z,70.25
2022-11-20T01:10:46.454Z,71.03
2022-11-20T01:13:51.037Z,70.34
2022-11-20T01:16:23.787Z,70.14
2022-11-20T01:18:53.057Z,71.03
2022-11-20T01:21:23.172Z,70.52
2022-11-20T01:23:50.696Z,71.84
2022-11-20T01:26:22.287Z,71.88
2022-11-20T01:28:49.108Z,71.21
2022-11-20T01:31:24.716Z,70.78
2022-11-20T01:33:53.422Z,70.69
2022-11-20T01:36:22.124Z,70.68
2022-11-20T01:38:49.097Z,70.70
2022-11-20T01:41:34.658Z,70.52
2022-11-20T01:44:02.855Z,70.24
2022-11-20T01:46:29.653Z,70.34
2022-11-20T01:49:12.029Z,70.52
2022-11-20T01:52:17.156Z,70.19
2022-11-20T01:54:50.285Z,70.21
2022-11-20T01:57:20.678Z,70.14
2022-11-20T01:59:56.848Z,70.18
2022-11-20T02:02:23.756Z,70.71
2022-11-20T02:04:55.335Z,71.99
2022-11-20T02:07:23.643Z,71.78
2022-11-20T02:09:53.774Z,72.43
2022-11-20T02:12:42.867Z,71.61
2022-11-20T02:15:09.891Z,71.65
2022-11-20T02:17:36.605Z,71.02
2022-11-20T02:20:04.068Z,71.26
2022-11-20T02:22:39.625Z,72.22
2022-11-20T02:25:08.214Z,72.23
2022-11-20T02:27:35.241Z,71.87
2022-11-20T02:30:08.626Z,71.50
2022-11-20T02:32:36.904Z,71.21
2022-11-20T02:35:30.584Z,71.28
2022-11-20T02:37:58.975Z,71.00
2022-11-20T02:40:26.206Z,71.52
2022-11-20T02:42:53.727Z,71.17
2022-11-20T02:45:20.493Z,70.78
2022-11-20T02:47:47.246Z,71.12
2022-11-20T02:50:13.989Z,71.15
2022-11-20T02:52:40.566Z,71.48
2022-11-20T02:55:07.716Z,71.37
2022-11-20T02:57:34.417Z,70.99
2022-11-20T03:00:01.157Z,70.87
2022-11-20T03:02:31.323Z,70.42
2022-11-20T03:04:58.207Z,70.67
2022-11-20T03:07:25.104Z,71.08
2022-11-20T03:09:51.781Z,71.15
2022-11-20T03:12:18.350Z,70.73
2022-11-20T03:14:48.880Z,70.87
2022-11-20T03:17:18.274Z,71.59
2022-11-20T03:19:44.857Z,71.62
2022-11-20T03:22:11.439Z,71.56
2022-11-20T03:24:38.021Z,71.43
2022-11-20T03:27:04.589Z,71.88
2022-11-20T03:29:31.229Z,71.80
2022-11-20T03:31:57.784Z,72.28
2022-11-20T03:34:24.485Z,72.55
2022-11-20T03:36:51.070Z,72.13
2022-11-20T03:39:17.689Z,72.52
2022-11-20T03:41:44.473Z,72.80
2022-11-20T03:44:12.458Z,72.44
2022-11-20T03:46:39.685Z,72.06
2022-11-20T03:49:06.470Z,73.08
2022-11-20T03:51:35.853Z,72.85
2022-11-20T03:54:05.589Z,73.10
2022-11-20T03:56:34.211Z,72.24
2022-11-20T03:59:01.148Z,72.34
2022-11-20T04:01:32.678Z,73.58
2022-11-20T04:03:59.667Z,73.15
2022-11-20T04:06:29.142Z,74.51
2022-11-20T04:08:59.322Z,75.31
2022-11-20T04:11:27.919Z,74.18
2022-11-20T04:13:59.852Z,73.10
2022-11-20T04:16:27.729Z,72.41
2022-11-20T04:18:55.979Z,71.98
2022-11-20T04:21:23.800Z,72.67
2022-11-20T04:23:51.568Z,73.16
2022-11-20T04:26:18.414Z,73.80
2022-11-20T04:28:45.004Z,74.94
2022-11-20T04:31:13.868Z,75.48
2022-11-20T04:33:40.868Z,76.03
2022-11-20T04:36:13.365Z,76.13
2022-11-20T04:38:40.211Z,75.92
2022-11-20T04:41:09.049Z,75.83
2022-11-20T04:43:35.654Z,75.67
2022-11-20T04:46:02.606Z,75.38
2022-11-20T04:48:30.528Z,74.34
2022-11-20T04:50:57.673Z,74.04
2022-11-20T04:53:25.047Z,74.39
2022-11-20T04:55:51.640Z,74.83
2022-11-20T04:58:18.236Z,74.68
2022-11-20T05:00:44.891Z,74.59
2022-11-20T05:03:11.559Z,75.03
2022-11-20T05:05:38.120Z,76.59
2022-11-20T05:08:05.027Z,75.75
2022-11-20T05:10:31.588Z,75.73
2022-11-20T05:12:58.584Z,75.39
2022-11-20T05:15:25.445Z,76.72
2022-11-20T05:17:53.689Z,77.60
2022-11-20T05:20:20.865Z,77.82
2022-11-20T05:22:47.545Z,77.87
2022-11-20T05:25:14.233Z,78.06
2022-11-20T05:27:40.818Z,77.94
2022-11-20T05:30:08.421Z,77.59
2022-11-20T05:32:35.013Z,77.89
2022-11-20T05:35:01.618Z,76.62
2022-11-20T05:37:28.209Z,75.82
2022-11-20T05:39:54.795Z,75.38
2022-11-20T05:42:33.341Z,76.39
2022-11-20T05:45:01.473Z,77.04
2022-11-20T05:47:31.882Z,76.88
2022-11-20T05:49:58.486Z,77.86
2022-11-20T05:52:25.097Z,77.96
2022-11-20T05:54:51.682Z,76.80
2022-11-20T05:57:18.252Z,75.58
2022-11-20T05:59:44.903Z,75.52
2022-11-20T06:02:11.804Z,74.77
2022-11-20T06:04:38.679Z,74.03
2022-11-20T06:07:08.252Z,73.90
2022-11-20T06:09:35.091Z,75.23
2022-11-20T06:12:01.681Z,74.30
2022-11-20T06:14:28.414Z,73.96
2022-11-20T06:16:55.029Z,73.21
2022-11-20T06:19:21.725Z,75.04
2022-11-20T06:21:50.371Z,77.25
2022-11-20T06:24:17.962Z,75.69
2022-11-20T06:26:45.307Z,75.10
2022-11-20T06:29:11.966Z,74.28
2022-11-20T06:31:38.878Z,73.98
2022-11-20T06:34:07.226Z,73.84
2022-11-20T06:36:34.581Z,74.75
2022-11-20T06:39:01.562Z,76.07
2022-11-20T06:41:29.036Z,76.97
2022-11-20T06:43:55.838Z,76.19
2022-11-20T06:46:23.217Z,74.19
2022-11-20T06:48:50.860Z,74.32
2022-11-20T06:51:17.978Z,73.42
2022-11-20T06:53:44.651Z,73.67
2022-11-20T06:56:11.281Z,73.58
2022-11-20T06:58:38.125Z,73.99
2022-11-20T07:01:11.088Z,74.61
2022-11-20T07:03:38.598Z,75.19
2022-11-20T07:06:06.169Z,74.24
2022-11-20T07:08:33.645Z,74.06
2022-11-20T07:11:05.819Z,73.89
2022-11-20T07:13:33.541Z,73.92
2022-11-20T07:16:01.916Z,73.79
2022-11-20T07:18:28.524Z,73.83
2022-11-20T07:20:55.308Z,73.42
2022-11-20T07:23:21.902Z,73.86
2022-11-20T07:25:48.511Z,73.63
2022-11-20T07:28:15.121Z,73.10
2022-11-20T07:30:41.739Z,72.67
2022-11-20T07:33:08.297Z,71.80
2022-11-20T07:35:34.933Z,73.03
2022-11-20T07:38:01.509Z,72.78
2022-11-20T07:40:28.975Z,71.78
2022-11-20T07:42:57.115Z,71.76
2022-11-20T07:45:25.372Z,71.85
2022-11-20T07:47:52.524Z,72.92
2022-11-20T07:50:20.358Z,72.42
2022-11-20T07:52:46.990Z,72.05
2022-11-20T07:55:13.998Z,72.81
2022-11-20T07:57:41.091Z,72.48
2022-11-20T08:00:10.423Z,72.21
2022-11-20T08:02:41.619Z,72.24
2022-11-20T08:05:09.861Z,71.59
2022-11-20T08:07:40.638Z,71.17
2022-11-20T08:10:08.961Z,71.63
2022-11-20T08:12:54.241Z,71.23
2022-11-20T08:15:20.961Z,71.68
2022-11-20T08:18:08.218Z,71.41
2022-11-20T08:20:35.387Z,71.47
2022-11-20T08:23:03.755Z,70.45
2022-11-20T08:25:31.057Z,72.07
2022-11-20T08:28:11.535Z,72.54
2022-11-20T08:30:42.421Z,71.62
2022-11-20T08:33:10.192Z,70.71
2022-11-20T08:35:38.731Z,70.21
2022-11-20T08:38:06.553Z,70.40
2022-11-20T08:40:33.893Z,69.52
2022-11-20T08:43:00.508Z,70.47
2022-11-20T08:45:31.019Z,68.91
2022-11-20T08:48:04.348Z,70.70
2022-11-20T08:50:33.369Z,70.27
2022-11-20T08:53:09.069Z,69.73
2022-11-20T08:55:36.827Z,70.54
2022-11-20T08:58:10.134Z,69.40
2022-11-20T09:00:36.673Z,68.56
2022-11-20T09:03:03.357Z,68.93
2022-11-20T09:05:30.307Z,69.96
2022-11-20T09:08:00.699Z,69.54
2022-11-20T09:10:28.463Z,69.23
2022-11-20T09:12:58.725Z,68.35
2022-11-20T09:15:26.329Z,66.69
2022-11-20T09:17:56.985Z,67.54
2022-11-20T09:20:23.865Z,67.61
2022-11-20T09:22:50.468Z,65.53
2022-11-20T09:25:17.340Z,64.10
2022-11-20T09:27:45.180Z,65.09
2022-11-20T09:30:12.452Z,65.61
2022-11-20T09:32:43.038Z,65.84
2022-11-20T09:35:10.452Z,65.60
2022-11-20T09:37:37.047Z,63.35
2022-11-20T09:40:03.910Z,62.85
2022-11-20T09:43:08.595Z,64.10
2022-11-20T09:46:10.812Z,59.96
2022-11-20T09:48:43.693Z,60.16
2022-11-20T09:51:29.131Z,58.55
2022-11-20T09:54:19.109Z,58.07
2022-11-20T09:56:57.642Z,57.13
2022-11-20T09:59:43.035Z,55.47
2022-11-20T10:02:28.737Z,54.79
2022-11-20T10:05:04.389Z,53.17
2022-11-20T10:07:51.177Z,55.27
2022-11-20T10:10:27.248Z,55.12
2022-11-20T10:13:12.167Z,54.63
2022-11-20T10:16:13.874Z,54.68
2022-11-20T10:18:40.568Z,53.48
2022-11-20T10:21:18.862Z,54.94
2022-11-20T10:23:56.211Z,53.82
2022-11-20T10:26:49.272Z,53.35
2022-11-20T10:29:19.689Z,54.25
2022-11-20T10:32:02.617Z,52.34
2022-11-20T10:34:39.433Z,51.10
2022-11-20T10:37:24.476Z,51.07
2022-11-20T10:40:16.153Z,49.08
2022-11-20T10:42:48.274Z,48.45
2022-11-20T10:45:27.157Z,49.09
2022-11-20T10:48:16.205Z,48.82
2022-11-20T10:50:56.125Z,48.94
2022-11-20T10:53:34.990Z,46.43
2022-11-20T10:56:16.255Z,45.51
2022-11-20T10:58:57.841Z,43.43
2022-11-20T11:01:24.753Z,44.02
2022-11-20T11:03:56.719Z,42.86
2022-11-20T11:06:29.097Z,42.18
2022-11-20T11:08:59.765Z,43.15
2022-11-20T11:11:32.978Z,41.51
2022-11-20T11:14:12.859Z,42.40
2022-11-20T11:16:58.765Z,42.51
2022-11-20T11:19:25.920Z,42.22
2022-11-20T11:21:57.728Z,42.20
2022-11-20T11:24:44.967Z,42.07
2022-11-20T11:27:18.978Z,42.29
2022-11-20T11:29:46.829Z,43.60
2022-11-20T11:32:14.670Z,43.45
2022-11-20T11:34:41.703Z,44.86
2022-11-20T11:37:19.441Z,45.26
2022-11-20T11:39:55.164Z,43.48
2022-11-20T11:42:26.060Z,44.56
2022-11-20T11:45:08.451Z,45.46
2022-11-20T11:47:44.694Z,44.92
2022-11-20T11:50:11.293Z,46.22
2022-11-20T11:52:49.934Z,45.71
2022-11-20T11:55:27.331Z,46.48
2022-11-20T11:58:03.009Z,47.03
2022-11-20T12:00:29.794Z,46.13
2022-11-20T12:03:17.762Z,46.23
2022-11-20T12:05:48.203Z,45.68
2022-11-20T12:08:38.125Z,46.16
2022-11-20T12:11:13.181Z,45.44
2022-11-20T12:13:56.999Z,43.35
2022-11-20T12:16:24.021Z,42.16
2022-11-20T12:18:52.732Z,40.11
2022-11-20T12:21:34.230Z,41.47
2022-11-20T12:24:36.240Z,42.62
2022-11-20T12:27:14.796Z,42.50
2022-11-20T12:29:47.512Z,41.95
2022-11-20T12:32:17.207Z,43.71
2022-11-20T12:35:11.483Z,42.58
2022-11-20T12:37:46.214Z,41.77
2022-11-20T12:40:32.604Z,42.22
2022-11-20T12:43:26.779Z,43.47
2022-11-20T12:46:08.232Z,42.94
2022-11-20T12:48:46.433Z,43.21
2022-11-20T12:51:33.677Z,44.57
2022-11-20T12:54:38.329Z,43.99
2022-11-20T12:57:16.338Z,43.80
2022-11-20T12:59:56.277Z,44.49
2022-11-20T13:02:36.810Z,44.46
2022-11-20T13:05:32.527Z,43.33
2022-11-20T13:07:59.606Z,44.25
2022-11-20T13:10:44.957Z,44.32
2022-11-20T13:13:42.342Z,45.20
2022-11-20T13:16:17.987Z,44.27
2022-11-20T13:18:46.260Z,44.92
2022-11-20T13:21:22.004Z,44.23
2022-11-20T13:23:48.792Z,43.48
2022-11-20T13:26:22.055Z,43.19
2022-11-20T13:28:49.431Z,43.96
2022-11-20T13:31:46.950Z,43.83
2022-11-20T13:34:25.581Z,45.08
2022-11-20T13:36:56.677Z,44.67
2022-11-20T13:39:28.053Z,44.15
2022-11-20T13:41:59.822Z,44.08
2022-11-20T13:44:44.876Z,45.05
2022-11-20T13:47:26.027Z,45.42
2022-11-20T13:49:55.524Z,45.47
2022-11-20T13:52:52.896Z,45.81
2022-11-20T13:55:51.276Z,46.60
2022-11-20T13:58:20.822Z,45.91
2022-11-20T14:00:56.576Z,47.16
2022-11-20T14:03:44.053Z,47.27
2022-11-20T14:06:20.714Z,46.77
2022-11-20T14:08:49.146Z,46.98
2022-11-20T14:11:21.824Z,47.58
2022-11-20T14:14:06.153Z,47.53
2022-11-20T14:16:36.274Z,46.75
2022-11-20T14:19:26.494Z,47.12
2022-11-20T14:21:55.563Z,47.35
2022-11-20T14:24:26.191Z,47.58
2022-11-20T14:26:53.698Z,47.48
2022-11-20T14:29:27.681Z,47.89
2022-11-20T14:31:56.720Z,47.88
2022-11-20T14:34:26.311Z,48.02
2022-11-20T14:36:57.336Z,47.81
2022-11-20T14:39:36.233Z,47.85
2022-11-20T14:42:04.025Z,48.19
2022-11-20T14:44:34.576Z,48.34
2022-11-20T14:47:02.940Z,48.41
2022-11-20T14:49:32.488Z,48.73
2022-11-20T14:52:04.081Z,48.36
2022-11-20T14:54:31.728Z,48.40
2022-11-20T14:57:03.663Z,48.87
2022-11-20T14:59:32.772Z,48.59
2022-11-20T15:02:02.964Z,48.75
2022-11-20T15:04:29.672Z,48.68
2022-11-20T15:06:59.435Z,49.03
2022-11-20T15:09:26.372Z,49.04
2022-11-20T15:12:04.257Z,49.51
2022-11-20T15:14:33.565Z,49.67
2022-11-20T15:17:00.567Z,49.94
2022-11-20T15:19:28.002Z,50.55
2022-11-20T15:21:54.643Z,50.07
2022-11-20T15:24:21.799Z,50.58
2022-11-20T15:26:48.877Z,51.26
2022-11-20T15:29:19.727Z,50.99
2022-11-20T15:31:46.582Z,51.43
2022-11-20T15:34:14.565Z,52.70
2022-11-20T15:36:41.953Z,52.92
2022-11-20T15:39:09.878Z,52.42
2022-11-20T15:41:36.987Z,52.71
2022-11-20T15:44:04.729Z,52.54
2022-11-20T15:46:39.521Z,53.00
2022-11-20T15:49:07.730Z,53.74
2022-11-20T15:51:39.567Z,54.39
2022-11-20T15:54:18.774Z,54.80
2022-11-20T15:56:45.392Z,55.62
2022-11-20T15:59:11.975Z,55.55
2022-11-20T16:01:38.619Z,56.08
2022-11-20T16:04:10.508Z,57.69
2022-11-20T16:06:37.064Z,59.24
2022-11-20T16:09:03.722Z,60.21
2022-11-20T16:11:30.579Z,61.15
2022-11-20T16:14:15.586Z,62.79
2022-11-20T16:16:44.100Z,64.77
2022-11-20T16:19:12.994Z,63.93
2022-11-20T16:21:42.345Z,64.36
2022-11-20T16:24:13.576Z,64.56
2022-11-20T16:26:40.862Z,66.18
2022-11-20T16:29:07.815Z,65.84
2022-11-20T16:31:34.869Z,65.61
2022-11-20T16:34:08.569Z,66.65
2022-11-20T16:36:40.782Z,66.00
2022-11-20T16:39:07.358Z,65.92
2022-11-20T16:41:34.953Z,65.38
2022-11-20T16:44:03.277Z,65.26
2022-11-20T16:46:31.792Z,65.73
2022-11-20T16:49:04.257Z,65.31
2022-11-20T16:51:34.644Z,66.57
2022-11-20T16:54:06.237Z,66.78
2022-11-20T16:56:33.285Z,67.03
2022-11-20T16:59:00.975Z,66.32
2022-11-20T17:01:29.088Z,65.46
2022-11-20T17:04:06.269Z,64.91
2022-11-20T17:06:39.034Z,63.57
2022-11-20T17:09:05.823Z,62.43
2022-11-20T17:11:33.597Z,62.44
2022-11-20T17:14:00.772Z,62.22
2022-11-20T17:16:27.561Z,61.85
2022-11-20T17:19:02.903Z,61.88
2022-11-20T17:21:31.259Z,61.87
2022-11-20T17:24:02.675Z,61.80
2022-11-20T17:26:29.480Z,61.83
2022-11-20T17:29:00.411Z,61.34
2022-11-20T17:31:28.467Z,61.87
2022-11-20T17:33:55.257Z,61.83
2022-11-20T17:36:22.543Z,61.95
2022-11-20T17:38:49.241Z,63.26
2022-11-20T17:41:20.795Z,62.28
2022-11-20T17:43:47.382Z,62.04
2022-11-20T17:46:16.678Z,61.85
2022-11-20T17:48:44.769Z,61.98
2022-11-20T17:51:13.782Z,62.79
2022-11-20T17:53:42.602Z,64.69
2022-11-20T17:56:28.338Z,63.53
2022-11-20T17:58:55.377Z,62.92
2022-11-20T18:01:22.342Z,62.42
2022-11-20T18:03:49.221Z,62.79
2022-11-20T18:06:18.800Z,62.18
2022-11-20T18:08:45.948Z,61.74
2022-11-20T18:11:29.725Z,63.32
2022-11-20T18:14:16.782Z,63.92
2022-11-20T18:16:49.147Z,64.15
2022-11-20T18:19:18.728Z,64.17
2022-11-20T18:21:45.353Z,62.87
2022-11-20T18:24:11.972Z,63.35
2022-11-20T18:26:43.852Z,64.00
2022-11-20T18:29:11.666Z,62.79
2022-11-20T18:31:38.309Z,62.56
2022-11-20T18:34:06.350Z,62.31
2022-11-20T18:36:33.466Z,62.32
2022-11-20T18:39:01.710Z,62.39
2022-11-20T18:41:48.577Z,62.21
2022-11-20T18:44:37.765Z,61.49
2022-11-20T18:47:13.731Z,61.53
2022-11-20T18:49:51.170Z,61.14
2022-11-20T18:52:23.788Z,61.27
2022-11-20T18:54:50.907Z,61.06
2022-11-20T18:57:23.102Z,61.37
2022-11-20T18:59:49.992Z,61.39
2022-11-20T19:02:19.230Z,62.23
2022-11-20T19:04:46.513Z,62.32
2022-11-20T19:07:14.427Z,61.68
2022-11-20T19:09:43.074Z,61.14
2022-11-20T19:12:11.956Z,60.75
2022-11-20T19:14:38.622Z,60.91
2022-11-20T19:17:06.986Z,60.70
2022-11-20T19:19:36.738Z,60.88
2022-11-20T19:22:04.199Z,60.88
2022-11-20T19:24:31.259Z,61.58
2022-11-20T19:26:58.241Z,61.52
2022-11-20T19:29:25.939Z,61.49
2022-11-20T19:31:53.617Z,61.73
2022-11-20T19:34:20.262Z,61.80
2022-11-20T19:36:47.005Z,61.72
2022-11-20T19:39:14.030Z,62.06
2022-11-20T19:41:41.169Z,61.35
2022-11-20T19:44:14.088Z,60.80
2022-11-20T19:46:41.449Z,61.02
2022-11-20T19:49:10.381Z,60.22
2022-11-20T19:51:39.076Z,60.28
2022-11-20T19:54:06.517Z,60.14
2022-11-20T19:56:33.836Z,60.22
2022-11-20T19:59:00.965Z,60.67
2022-11-20T20:01:30.081Z,60.55
2022-11-20T20:04:02.485Z,60.64
2022-11-20T20:06:30.093Z,60.90
2022-11-20T20:09:02.210Z,61.24
2022-11-20T20:11:30.969Z,61.09
2022-11-20T20:13:59.089Z,61.00
2022-11-20T20:16:26.629Z,60.95
2022-11-20T20:19:01.844Z,61.03
2022-11-20T20:21:30.548Z,61.86
2022-11-20T20:23:58.480Z,61.64
2022-11-20T20:26:26.961Z,61.21
2022-11-20T20:28:53.542Z,61.30
2022-11-20T20:31:28.029Z,61.22
2022-11-20T20:33:55.081Z,61.25
2022-11-20T20:36:23.434Z,61.25
2022-11-20T20:38:54.245Z,60.95
2022-11-20T20:41:22.413Z,60.40
2022-11-20T20:44:07.580Z,60.12
2022-11-20T20:46:34.488Z,59.89
2022-11-20T20:49:01.222Z,60.06
2022-11-20T20:51:27.932Z,61.04
2022-11-20T20:53:54.593Z,60.61
2022-11-20T20:56:21.393Z,60.56
2022-11-20T20:58:47.992Z,60.88
2022-11-20T21:01:17.297Z,60.81
2022-11-20T21:03:44.316Z,60.87
2022-11-20T21:06:11.844Z,60.66
2022-11-20T21:08:40.793Z,61.25
2022-11-20T21:11:10.865Z,61.91
2022-11-20T21:13:38.737Z,62.57
2022-11-20T21:16:05.759Z,61.67
2022-11-20T21:18:33.172Z,60.76
2022-11-20T21:21:18.735Z,61.71
2022-11-20T21:23:47.655Z,61.84
2022-11-20T21:26:15.981Z,61.54
2022-11-20T21:28:42.808Z,61.46
2022-11-20T21:31:16.965Z,60.59
2022-11-20T21:33:45.569Z,60.08
2022-11-20T21:36:14.609Z,61.55
2022-11-20T21:38:41.564Z,61.61
2022-11-20T21:41:09.670Z,60.76
2022-11-20T21:43:36.866Z,60.08
2022-11-20T21:46:30.857Z,61.81
2022-11-20T21:48:57.546Z,60.79
2022-11-20T21:51:27.216Z,60.70
2022-11-20T21:53:55.337Z,61.02
2022-11-20T21:56:24.666Z,61.05
2022-11-20T21:58:54.795Z,60.77
2022-11-20T22:01:23.089Z,60.31
2022-11-20T22:03:56.822Z,60.67
2022-11-20T22:06:25.689Z,59.72
2022-11-20T22:08:52.328Z,60.17
2022-11-20T22:11:21.215Z,60.05
2022-11-20T22:14:07.416Z,60.15
2022-11-20T22:16:35.471Z,60.62
2022-11-20T22:19:02.290Z,60.35
2022-11-20T22:21:30.417Z,60.95
2022-11-20T22:23:57.912Z,61.07
2022-11-20T22:26:27.402Z,60.40
2022-11-20T22:28:57.281Z,60.91
2022-11-20T22:31:27.220Z,62.61
2022-11-20T22:33:54.090Z,63.75
2022-11-20T22:36:26.197Z,64.50
2022-11-20T22:38:52.762Z,64.10
2022-11-20T22:41:21.909Z,63.41
2022-11-20T22:43:48.560Z,63.45
2022-11-20T22:46:17.570Z,63.90
2022-11-20T22:48:53.134Z,63.90
2022-11-20T22:51:24.769Z,63.52
2022-11-20T22:53:51.673Z,62.81
2022-11-20T22:56:18.906Z,63.53
2022-11-20T22:58:47.805Z,63.16
2022-11-20T23:01:35.188Z,63.75
2022-11-20T23:04:04.857Z,62.79
2022-11-20T23:06:34.394Z,63.18
2022-11-20T23:09:02.162Z,64.58
2022-11-20T23:11:30.978Z,64.68
2022-11-20T23:14:00.541Z,63.55
2022-11-20T23:16:29.940Z,63.29
2022-11-20T23:18:59.445Z,63.11
2022-11-20T23:21:26.864Z,62.95
2022-11-20T23:23:55.710Z,62.91
2022-11-20T23:26:24.578Z,62.51
2022-11-20T23:28:53.515Z,62.40
2022-11-20T23:31:20.613Z,63.12
2022-11-20T23:33:47.258Z,62.76
2022-11-20T23:36:14.832Z,62.17
2022-11-20T23:38:41.554Z,62.45
2022-11-20T23:41:08.189Z,62.45
2022-11-20T23:43:35.112Z,62.85
2022-11-20T23:46:03.475Z,64.05
2022-11-20T23:48:32.652Z,64.23
2022-11-20T23:51:00.010Z,63.87
2022-11-20T23:53:27.280Z,64.62
2022-11-20T23:55:55.891Z,64.14
2022-11-20T23:58:24.634Z,64.71
